createdAt,value
2019-01-12T00:00:35.639Z,0
2019-01-12T00:01:16.901Z,0
2019-01-12T00:01:58.265Z,0
2019-01-12T00:02:39.503Z,0
2019-01-12T00:03:20.810Z,0
2019-01-12T00:04:02.001Z,0
2019-01-12T00:04:43.346Z,0
2019-01-12T00:05:24.667Z,0
2019-01-12T00:06:05.883Z,0
2019-01-12T00:06:47.949Z,0
2019-01-12T00:07:29.398Z,0
2019-01-12T00:08:10.824Z,0
2019-01-12T00:08:52.091Z,0
2019-01-12T00:09:33.246Z,0
2019-01-12T00:10:14.621Z,0
2019-01-12T00:10:55.471Z,0
2019-01-12T00:11:36.790Z,0
2019-01-12T00:12:18.914Z,0
2019-01-12T00:13:00.179Z,0
2019-01-12T00:13:41.164Z,0
2019-01-12T00:14:22.895Z,0
2019-01-12T00:15:04.213Z,0
2019-01-12T00:15:46.300Z,0
2019-01-12T00:16:27.309Z,0
2019-01-12T00:17:08.731Z,0
2019-01-12T00:17:49.852Z,0
2019-01-12T00:18:31.285Z,0
2019-01-12T00:19:12.314Z,0
2019-01-12T00:19:54.049Z,0
2019-01-12T00:20:35.289Z,0
2019-01-12T00:21:17.607Z,0
2019-01-12T00:21:58.832Z,0
2019-01-12T00:22:40.196Z,0
2019-01-12T00:23:21.292Z,0
2019-01-12T00:24:02.309Z,0
2019-01-12T00:24:43.779Z,0
2019-01-12T00:25:25.974Z,0
2019-01-12T00:26:07.360Z,0
2019-01-12T00:26:48.716Z,0
2019-01-12T00:27:29.539Z,0
2019-01-12T00:28:10.689Z,0
2019-01-12T00:28:52.047Z,0
2019-01-12T00:29:33.218Z,0
2019-01-12T00:30:14.538Z,0
2019-01-12T00:30:55.320Z,0
2019-01-12T00:31:36.000Z,0
2019-01-12T00:32:18.165Z,0
2019-01-12T00:32:59.402Z,0
2019-01-12T00:33:40.531Z,0
2019-01-12T00:34:21.776Z,0
2019-01-12T00:35:02.347Z,0
2019-01-12T00:35:42.886Z,0
2019-01-12T00:36:23.650Z,0
2019-01-12T00:37:04.257Z,0
2019-01-12T00:37:44.848Z,0
2019-01-12T00:38:25.425Z,0
2019-01-12T00:39:05.959Z,0
2019-01-12T00:39:46.538Z,0
2019-01-12T00:40:27.081Z,0
2019-01-12T00:41:07.634Z,0
2019-01-12T00:41:48.195Z,0
2019-01-12T00:42:28.769Z,0
2019-01-12T00:43:09.328Z,0
2019-01-12T00:43:49.890Z,0
2019-01-12T00:44:30.485Z,0
2019-01-12T00:45:11.169Z,0
2019-01-12T00:45:51.761Z,0
2019-01-12T00:46:32.338Z,0
2019-01-12T00:47:12.909Z,0
2019-01-12T00:47:53.474Z,0
2019-01-12T00:48:34.016Z,0
2019-01-12T00:49:14.603Z,0
2019-01-12T00:49:55.162Z,0
2019-01-12T00:50:35.748Z,0
2019-01-12T00:51:16.315Z,0
2019-01-12T00:51:56.874Z,0
2019-01-12T00:52:37.444Z,0
2019-01-12T00:53:18.033Z,0
2019-01-12T00:53:58.671Z,0
2019-01-12T00:54:39.251Z,0
2019-01-12T00:55:19.819Z,0
2019-01-12T00:56:00.376Z,0
2019-01-12T00:56:40.957Z,0
2019-01-12T00:57:21.520Z,0
2019-01-12T00:58:02.090Z,0
2019-01-12T00:58:42.642Z,0
2019-01-12T00:59:23.228Z,0
2019-01-12T01:00:03.799Z,0
2019-01-12T01:00:44.366Z,0
2019-01-12T01:01:24.951Z,0
2019-01-12T01:02:05.532Z,0
2019-01-12T01:02:46.099Z,0
2019-01-12T01:03:26.677Z,0
2019-01-12T01:04:07.265Z,0
2019-01-12T01:04:47.845Z,0
2019-01-12T01:05:28.408Z,0
2019-01-12T01:06:08.978Z,0
2019-01-12T01:06:49.550Z,0
2019-01-12T01:07:30.125Z,0
2019-01-12T01:08:10.743Z,0
2019-01-12T01:08:51.288Z,0
2019-01-12T01:09:31.893Z,0
2019-01-12T01:10:12.453Z,0
2019-01-12T01:10:53.107Z,0
2019-01-12T01:11:33.676Z,0
2019-01-12T01:12:14.235Z,0
2019-01-12T01:12:54.968Z,0
2019-01-12T01:13:35.512Z,0
2019-01-12T01:14:16.182Z,0
2019-01-12T01:14:56.734Z,0
2019-01-12T01:15:37.267Z,0
2019-01-12T01:16:17.870Z,0
2019-01-12T01:16:58.441Z,0
2019-01-12T01:17:39.012Z,0
2019-01-12T01:18:19.568Z,0
2019-01-12T01:19:00.130Z,0
2019-01-12T01:19:40.717Z,0
2019-01-12T01:20:21.295Z,0
2019-01-12T01:21:01.888Z,0
2019-01-12T01:21:42.437Z,0
2019-01-12T01:22:23.012Z,0
2019-01-12T01:23:03.545Z,0
2019-01-12T01:23:44.258Z,0
2019-01-12T01:24:24.793Z,0
2019-01-12T01:25:05.372Z,0
2019-01-12T01:25:45.961Z,0
2019-01-12T01:26:26.588Z,0
2019-01-12T01:27:07.163Z,0
2019-01-12T01:27:47.880Z,0
2019-01-12T01:28:28.475Z,0
2019-01-12T01:29:09.058Z,0
2019-01-12T01:29:49.623Z,0
2019-01-12T01:30:30.212Z,0
2019-01-12T01:31:10.766Z,0
2019-01-12T01:31:51.350Z,0
2019-01-12T01:32:31.925Z,0
2019-01-12T01:33:12.540Z,0
2019-01-12T01:33:53.161Z,0
2019-01-12T01:34:33.702Z,0
2019-01-12T01:35:16.949Z,0
2019-01-12T01:35:57.569Z,0
2019-01-12T01:36:38.646Z,0
2019-01-12T01:37:19.187Z,0
2019-01-12T01:37:59.772Z,0
2019-01-12T01:38:40.333Z,0
2019-01-12T01:39:20.880Z,0
2019-01-12T01:40:01.454Z,0
2019-01-12T01:40:42.018Z,0
2019-01-12T01:41:22.581Z,0
2019-01-12T01:42:03.152Z,0
2019-01-12T01:42:43.774Z,0
2019-01-12T01:43:24.348Z,0
2019-01-12T01:44:04.911Z,0
2019-01-12T01:44:45.463Z,0
2019-01-12T01:45:26.062Z,0
2019-01-12T01:46:06.624Z,0
2019-01-12T01:46:47.209Z,0
2019-01-12T01:47:27.767Z,0
2019-01-12T01:48:08.340Z,0
2019-01-12T01:48:48.931Z,0
2019-01-12T01:49:29.469Z,0
2019-01-12T01:50:10.062Z,0
2019-01-12T01:50:50.622Z,0
2019-01-12T01:51:31.181Z,0
2019-01-12T01:52:11.728Z,0
2019-01-12T01:52:52.301Z,0
2019-01-12T01:53:32.856Z,0
2019-01-12T01:54:13.438Z,0
2019-01-12T01:54:54.002Z,0
2019-01-12T01:55:34.597Z,0
2019-01-12T01:56:15.169Z,0
2019-01-12T01:56:55.747Z,0
2019-01-12T01:57:36.298Z,0
2019-01-12T01:58:16.867Z,0
2019-01-12T01:58:57.508Z,0
2019-01-12T01:59:38.072Z,0
2019-01-12T02:00:18.633Z,0
2019-01-12T02:00:59.202Z,0
2019-01-12T02:01:39.757Z,0
2019-01-12T02:02:20.357Z,0
2019-01-12T02:03:00.898Z,0
2019-01-12T02:03:41.467Z,0
2019-01-12T02:04:22.033Z,0
2019-01-12T02:05:02.581Z,0
2019-01-12T02:05:43.147Z,0
2019-01-12T02:06:23.699Z,0
2019-01-12T02:07:04.275Z,0
2019-01-12T02:07:44.872Z,0
2019-01-12T02:08:25.431Z,0
2019-01-12T02:09:05.979Z,0
2019-01-12T02:09:46.577Z,0
2019-01-12T02:10:27.132Z,0
2019-01-12T02:11:07.727Z,0
2019-01-12T02:11:48.284Z,0
2019-01-12T02:12:28.854Z,0
2019-01-12T02:13:09.410Z,0
2019-01-12T02:13:49.980Z,0
2019-01-12T02:14:30.560Z,0
2019-01-12T02:15:11.151Z,0
2019-01-12T02:15:51.740Z,0
2019-01-12T02:16:32.299Z,0
2019-01-12T02:17:12.883Z,0
2019-01-12T02:17:53.450Z,0
2019-01-12T02:18:34.000Z,0
2019-01-12T02:19:14.576Z,0
2019-01-12T02:19:55.136Z,0
2019-01-12T02:20:35.691Z,0
2019-01-12T02:21:16.284Z,0
2019-01-12T02:21:56.843Z,0
2019-01-12T02:22:37.469Z,0
2019-01-12T02:23:18.025Z,0
2019-01-12T02:23:58.567Z,0
2019-01-12T02:24:39.129Z,0
2019-01-12T02:25:19.716Z,0
2019-01-12T02:26:00.303Z,0
2019-01-12T02:26:40.867Z,0
2019-01-12T02:27:21.406Z,0
2019-01-12T02:28:01.976Z,0
2019-01-12T02:28:42.540Z,0
2019-01-12T02:29:23.138Z,0
2019-01-12T02:30:03.690Z,0
2019-01-12T02:30:44.264Z,0
2019-01-12T02:31:24.829Z,0
2019-01-12T02:32:05.372Z,0
2019-01-12T02:32:45.991Z,0
2019-01-12T02:33:26.549Z,0
2019-01-12T02:34:07.116Z,0
2019-01-12T02:34:47.670Z,0
2019-01-12T02:35:28.243Z,0
2019-01-12T02:36:08.790Z,0
2019-01-12T02:36:49.626Z,0
2019-01-12T02:37:30.169Z,0
2019-01-12T02:38:10.757Z,0
2019-01-12T02:38:51.356Z,0
2019-01-12T02:39:31.947Z,0
2019-01-12T02:40:12.541Z,0
2019-01-12T02:40:53.128Z,0
2019-01-12T02:41:33.696Z,0
2019-01-12T02:42:14.312Z,0
2019-01-12T02:42:54.884Z,0
2019-01-12T02:43:35.476Z,0
2019-01-12T02:44:16.058Z,0
2019-01-12T02:44:56.632Z,0
2019-01-12T02:45:37.211Z,0
2019-01-12T02:46:17.768Z,0
2019-01-12T02:46:58.366Z,0
2019-01-12T02:47:38.917Z,0
2019-01-12T02:48:19.502Z,0
2019-01-12T02:49:00.080Z,0
2019-01-12T02:49:40.650Z,0
2019-01-12T02:50:21.210Z,0
2019-01-12T02:51:01.793Z,0
2019-01-12T02:51:42.347Z,0
2019-01-12T02:52:22.961Z,0
2019-01-12T02:53:03.546Z,0
2019-01-12T02:53:44.110Z,0
2019-01-12T02:54:24.683Z,0
2019-01-12T02:55:08.818Z,0
2019-01-12T02:55:45.862Z,0
2019-01-12T02:56:26.422Z,0
2019-01-12T02:57:07.055Z,0
2019-01-12T02:57:47.614Z,0
2019-01-12T02:58:28.184Z,0
2019-01-12T02:59:08.742Z,0
2019-01-12T02:59:49.308Z,0
2019-01-12T03:00:29.871Z,0
2019-01-12T03:01:10.462Z,0
2019-01-12T03:01:51.043Z,0
2019-01-12T03:02:31.624Z,0
2019-01-12T03:03:12.220Z,0
2019-01-12T03:03:52.841Z,0
2019-01-12T03:04:33.421Z,0
2019-01-12T03:05:14.002Z,0
2019-01-12T03:05:54.560Z,0
2019-01-12T03:08:22.628Z,0
2019-01-12T03:09:03.190Z,0
2019-01-12T03:09:43.790Z,0
2019-01-12T03:10:24.352Z,0
2019-01-12T03:11:04.918Z,0
2019-01-12T03:11:45.462Z,0
2019-01-12T03:12:26.034Z,0
2019-01-12T03:13:06.630Z,0
2019-01-12T03:13:47.248Z,0
2019-01-12T03:14:27.804Z,0
2019-01-12T03:15:08.415Z,0
2019-01-12T03:15:48.960Z,0
2019-01-12T03:16:29.518Z,0
2019-01-12T03:17:10.073Z,0
2019-01-12T03:17:50.639Z,0
2019-01-12T03:18:31.214Z,0
2019-01-12T03:19:11.764Z,0
2019-01-12T03:19:52.331Z,0
2019-01-12T03:20:32.942Z,0
2019-01-12T03:21:13.500Z,0
2019-01-12T03:21:54.060Z,0
2019-01-12T03:22:34.621Z,0
2019-01-12T03:23:15.181Z,0
2019-01-12T03:23:55.731Z,0
2019-01-12T03:24:36.304Z,0
2019-01-12T03:25:18.109Z,0
2019-01-12T03:25:57.443Z,0
2019-01-12T03:26:37.994Z,0
2019-01-12T03:27:18.549Z,0
2019-01-12T03:27:59.114Z,0
2019-01-12T03:28:39.733Z,0
2019-01-12T03:29:20.248Z,0
2019-01-12T03:30:00.844Z,0
2019-01-12T03:30:41.403Z,0
2019-01-12T03:31:21.984Z,0
2019-01-12T03:32:02.542Z,0
2019-01-12T03:32:43.097Z,0
2019-01-12T03:33:23.682Z,0
2019-01-12T03:34:04.207Z,0
2019-01-12T03:34:44.779Z,0
2019-01-12T03:35:25.319Z,0
2019-01-12T03:36:05.878Z,0
2019-01-12T03:36:46.445Z,0
2019-01-12T03:37:27.003Z,0
2019-01-12T03:38:07.536Z,0
2019-01-12T03:38:48.096Z,0
2019-01-12T03:39:28.661Z,0
2019-01-12T03:40:09.220Z,0
2019-01-12T03:40:49.788Z,0
2019-01-12T03:41:30.352Z,0
2019-01-12T03:42:10.929Z,0
2019-01-12T03:42:51.485Z,0
2019-01-12T03:43:32.067Z,0
2019-01-12T03:44:12.627Z,0
2019-01-12T03:44:53.181Z,0
2019-01-12T03:45:33.753Z,0
2019-01-12T03:46:14.314Z,0
2019-01-12T03:46:54.874Z,0
2019-01-12T03:47:35.417Z,0
2019-01-12T03:48:15.949Z,0
2019-01-12T03:48:56.509Z,0
2019-01-12T03:49:37.076Z,0
2019-01-12T03:50:17.621Z,0
2019-01-12T03:50:58.159Z,0
2019-01-12T03:51:38.750Z,0
2019-01-12T03:52:19.309Z,0
2019-01-12T03:52:59.862Z,0
2019-01-12T03:53:40.421Z,0
2019-01-12T03:54:20.988Z,0
2019-01-12T03:55:01.555Z,0
2019-01-12T03:55:42.130Z,0
2019-01-12T03:56:22.677Z,0
2019-01-12T03:57:03.226Z,0
2019-01-12T03:57:43.798Z,0
2019-01-12T03:58:24.350Z,0
2019-01-12T03:59:04.905Z,0
2019-01-12T03:59:45.457Z,0
2019-01-12T04:00:26.043Z,0
2019-01-12T04:01:06.600Z,0
2019-01-12T04:01:47.183Z,0
2019-01-12T04:02:27.758Z,0
2019-01-12T04:03:08.313Z,0
2019-01-12T04:03:48.895Z,0
2019-01-12T04:04:29.444Z,0
2019-01-12T04:05:10.003Z,0
2019-01-12T04:05:50.584Z,0
2019-01-12T04:06:31.139Z,0
2019-01-12T04:07:11.699Z,0
2019-01-12T04:07:52.278Z,0
2019-01-12T04:08:32.862Z,0
2019-01-12T04:09:13.421Z,0
2019-01-12T04:09:53.972Z,0
2019-01-12T04:10:34.535Z,0
2019-01-12T04:11:15.078Z,0
2019-01-12T04:11:55.644Z,0
2019-01-12T04:12:36.214Z,0
2019-01-12T04:13:16.776Z,0
2019-01-12T04:13:57.335Z,0
2019-01-12T04:14:37.904Z,0
2019-01-12T04:15:18.485Z,0
2019-01-12T04:15:59.049Z,0
2019-01-12T04:16:39.619Z,0
2019-01-12T04:17:20.164Z,0
2019-01-12T04:18:00.724Z,0
2019-01-12T04:18:41.280Z,0
2019-01-12T04:19:21.842Z,0
2019-01-12T04:20:02.417Z,0
2019-01-12T04:20:42.999Z,0
2019-01-12T04:21:23.551Z,0
2019-01-12T04:22:04.134Z,0
2019-01-12T04:22:44.716Z,0
2019-01-12T04:23:25.265Z,0
2019-01-12T04:24:05.826Z,0
2019-01-12T04:24:46.391Z,0
2019-01-12T04:25:33.461Z,0
2019-01-12T04:26:07.510Z,0
2019-01-12T04:26:48.071Z,0
2019-01-12T04:27:28.629Z,0
2019-01-12T04:28:09.179Z,0
2019-01-12T04:28:49.793Z,0
2019-01-12T04:29:30.358Z,0
2019-01-12T04:30:10.889Z,0
2019-01-12T04:30:51.439Z,0
2019-01-12T04:31:32.005Z,0
2019-01-12T04:32:12.605Z,0
2019-01-12T04:32:53.170Z,0
2019-01-12T04:33:33.713Z,0
2019-01-12T04:34:14.269Z,0
2019-01-12T04:34:54.833Z,0
2019-01-12T04:35:35.391Z,0
2019-01-12T04:36:15.946Z,0
2019-01-12T04:36:56.779Z,0
2019-01-12T04:37:37.324Z,0
2019-01-12T04:38:17.901Z,0
2019-01-12T04:38:58.446Z,0
2019-01-12T04:39:39.001Z,0
2019-01-12T04:40:19.555Z,0
2019-01-12T04:41:00.124Z,0
2019-01-12T04:41:40.683Z,0
2019-01-12T04:42:21.255Z,0
2019-01-12T04:43:01.832Z,0
2019-01-12T04:43:42.384Z,0
2019-01-12T04:44:22.935Z,0
2019-01-12T04:45:03.500Z,0
2019-01-12T04:45:44.057Z,0
2019-01-12T04:46:24.626Z,0
2019-01-12T04:47:05.188Z,0
2019-01-12T04:47:45.756Z,0
2019-01-12T04:48:26.312Z,0
2019-01-12T04:49:06.876Z,0
2019-01-12T04:49:47.509Z,0
2019-01-12T04:50:28.087Z,0
2019-01-12T04:51:08.644Z,0
2019-01-12T04:51:49.221Z,0
2019-01-12T04:52:29.769Z,0
2019-01-12T04:53:10.337Z,0
2019-01-12T04:53:50.925Z,0
2019-01-12T04:54:31.498Z,0
2019-01-12T04:55:12.069Z,0
2019-01-12T04:55:52.623Z,0
2019-01-12T04:56:33.173Z,0
2019-01-12T04:57:13.727Z,0
2019-01-12T04:57:54.274Z,0
2019-01-12T04:58:34.875Z,0
2019-01-12T04:59:15.438Z,0
2019-01-12T04:59:55.990Z,0
2019-01-12T05:00:36.553Z,0
2019-01-12T05:01:17.125Z,0
2019-01-12T05:01:57.704Z,0
2019-01-12T05:02:38.287Z,0
2019-01-12T05:03:18.824Z,0
2019-01-12T05:03:59.392Z,0
2019-01-12T05:04:39.949Z,0
2019-01-12T05:05:20.493Z,0
2019-01-12T05:06:01.056Z,0
2019-01-12T05:06:41.620Z,0
2019-01-12T05:07:22.162Z,0
2019-01-12T05:08:02.730Z,0
2019-01-12T05:08:43.278Z,0
2019-01-12T05:09:24.367Z,0
2019-01-12T05:10:04.971Z,0
2019-01-12T05:10:45.533Z,0
2019-01-12T05:11:26.097Z,0
2019-01-12T05:12:06.660Z,0
2019-01-12T05:12:47.218Z,0
2019-01-12T05:13:27.767Z,0
2019-01-12T05:14:08.324Z,0
2019-01-12T05:14:48.891Z,0
2019-01-12T05:15:29.450Z,0
2019-01-12T05:16:10.001Z,0
2019-01-12T05:16:50.560Z,0
2019-01-12T05:17:31.131Z,0
2019-01-12T05:18:11.698Z,0
2019-01-12T05:18:52.246Z,0
2019-01-12T05:19:32.800Z,0
2019-01-12T05:20:13.351Z,0
2019-01-12T05:20:53.911Z,0
2019-01-12T05:21:34.475Z,0
2019-01-12T05:22:15.031Z,0
2019-01-12T05:22:55.594Z,0
2019-01-12T05:23:36.148Z,0
2019-01-12T05:24:16.706Z,0
2019-01-12T05:24:57.330Z,0
2019-01-12T05:25:37.901Z,0
2019-01-12T05:26:18.465Z,0
2019-01-12T05:26:59.012Z,0
2019-01-12T05:27:39.696Z,0
2019-01-12T05:28:20.246Z,0
2019-01-12T05:29:00.796Z,0
2019-01-12T05:29:41.346Z,0
2019-01-12T05:30:21.906Z,0
2019-01-12T05:31:02.501Z,0
2019-01-12T05:31:43.078Z,0
2019-01-12T05:32:23.658Z,0
2019-01-12T05:33:04.218Z,0
2019-01-12T05:33:44.793Z,0
2019-01-12T05:34:25.343Z,0
2019-01-12T05:35:05.890Z,0
2019-01-12T05:35:46.438Z,0
2019-01-12T05:36:26.993Z,0
2019-01-12T05:37:07.559Z,0
2019-01-12T05:37:48.141Z,0
2019-01-12T05:38:28.688Z,0
2019-01-12T05:39:09.252Z,0
2019-01-12T05:39:49.804Z,0
2019-01-12T05:40:30.370Z,0
2019-01-12T05:41:10.926Z,0
2019-01-12T05:41:51.495Z,0
2019-01-12T05:42:32.057Z,0
2019-01-12T05:43:12.630Z,0
2019-01-12T05:43:53.221Z,0
2019-01-12T05:44:33.772Z,0
2019-01-12T05:45:14.331Z,0
2019-01-12T05:45:54.904Z,0
2019-01-12T05:46:35.470Z,0
2019-01-12T05:47:16.053Z,0
2019-01-12T05:47:56.617Z,0
2019-01-12T05:48:37.167Z,0
2019-01-12T05:49:17.732Z,0
2019-01-12T05:49:58.279Z,0
2019-01-12T05:50:38.835Z,0
2019-01-12T05:51:19.400Z,0
2019-01-12T05:51:59.980Z,0
2019-01-12T05:52:40.539Z,0
2019-01-12T05:53:21.099Z,0
2019-01-12T05:54:01.643Z,0
2019-01-12T05:54:42.205Z,0
2019-01-12T05:55:22.772Z,0
2019-01-12T05:56:03.331Z,0
2019-01-12T05:56:43.921Z,0
2019-01-12T05:57:24.466Z,0
2019-01-12T05:58:05.018Z,0
2019-01-12T05:58:45.564Z,0
2019-01-12T05:59:26.114Z,0
2019-01-12T06:00:06.665Z,0
2019-01-12T06:00:47.292Z,0
2019-01-12T06:01:27.841Z,0
2019-01-12T06:02:08.398Z,0
2019-01-12T06:02:48.950Z,0
2019-01-12T06:03:29.501Z,0
2019-01-12T06:04:10.046Z,0
2019-01-12T06:04:50.603Z,0
2019-01-12T06:05:31.156Z,0
2019-01-12T06:06:11.707Z,0
2019-01-12T06:06:52.271Z,0
2019-01-12T06:07:32.838Z,0
2019-01-12T06:08:13.430Z,0
2019-01-12T06:08:53.975Z,0
2019-01-12T06:09:34.542Z,0
2019-01-12T06:10:15.091Z,0
2019-01-12T06:10:55.683Z,0
2019-01-12T06:11:36.256Z,0
2019-01-12T06:12:16.827Z,0
2019-01-12T06:12:57.377Z,0
2019-01-12T06:13:38.063Z,0
2019-01-12T06:14:18.626Z,0
2019-01-12T06:14:59.190Z,0
2019-01-12T06:15:39.734Z,0
2019-01-12T06:16:20.289Z,0
2019-01-12T06:17:00.840Z,0
2019-01-12T06:17:41.469Z,0
2019-01-12T06:18:22.048Z,0
2019-01-12T06:19:02.592Z,0
2019-01-12T06:19:43.173Z,0
2019-01-12T06:20:23.741Z,0
2019-01-12T06:21:04.289Z,0
2019-01-12T06:21:44.843Z,0
2019-01-12T06:22:25.412Z,0
2019-01-12T06:23:05.970Z,0
2019-01-12T06:23:46.530Z,0
2019-01-12T06:24:27.072Z,0
2019-01-12T06:25:07.625Z,0
2019-01-12T06:25:48.198Z,0
2019-01-12T06:26:28.791Z,0
2019-01-12T06:27:09.347Z,0
2019-01-12T06:27:49.891Z,0
2019-01-12T06:28:30.471Z,0
2019-01-12T06:29:11.064Z,0
2019-01-12T06:29:51.644Z,0
2019-01-12T06:30:32.187Z,0
2019-01-12T06:31:12.731Z,0
2019-01-12T06:31:53.284Z,0
2019-01-12T06:32:33.849Z,0
2019-01-12T06:33:14.444Z,0
2019-01-12T06:33:54.995Z,0
2019-01-12T06:34:35.544Z,0
2019-01-12T06:35:16.097Z,0
2019-01-12T06:35:56.663Z,0
2019-01-12T06:36:37.446Z,0
2019-01-12T06:37:18.001Z,0
2019-01-12T06:37:58.579Z,0
2019-01-12T06:38:39.138Z,0
2019-01-12T06:39:19.729Z,0
2019-01-12T06:40:00.550Z,0
2019-01-12T06:40:41.102Z,0
2019-01-12T06:41:21.657Z,0
2019-01-12T06:42:02.211Z,0
2019-01-12T06:42:42.805Z,0
2019-01-12T06:43:23.377Z,0
2019-01-12T06:44:03.929Z,0
2019-01-12T06:44:44.486Z,0
2019-01-12T06:45:25.104Z,0
2019-01-12T06:46:05.682Z,0
2019-01-12T06:46:46.238Z,0
2019-01-12T06:47:26.796Z,0
2019-01-12T06:48:07.341Z,0
2019-01-12T06:48:47.898Z,0
2019-01-12T06:49:28.459Z,0
2019-01-12T06:50:09.025Z,0
2019-01-12T06:50:49.578Z,0
2019-01-12T06:51:30.144Z,0
2019-01-12T06:52:10.719Z,0
2019-01-12T06:52:51.305Z,0
2019-01-12T06:53:31.860Z,0
2019-01-12T06:54:12.418Z,0
2019-01-12T06:54:53.006Z,0
2019-01-12T06:55:33.591Z,0
2019-01-12T06:56:14.151Z,0
2019-01-12T06:56:54.705Z,0
2019-01-12T06:57:35.261Z,0
2019-01-12T06:58:15.812Z,0
2019-01-12T06:58:56.372Z,0
2019-01-12T06:59:36.953Z,0
2019-01-12T07:00:17.509Z,0
2019-01-12T07:00:58.084Z,0
2019-01-12T07:01:38.665Z,0
2019-01-12T07:02:19.220Z,0
2019-01-12T07:02:59.769Z,0
2019-01-12T07:03:40.343Z,0
2019-01-12T07:04:20.900Z,0
2019-01-12T07:05:01.455Z,0
2019-01-12T07:05:42.184Z,0
2019-01-12T07:06:22.826Z,0
2019-01-12T07:07:03.364Z,0
2019-01-12T07:07:43.957Z,0
2019-01-12T07:08:24.496Z,0
2019-01-12T07:09:05.144Z,0
2019-01-12T07:09:45.709Z,0
2019-01-12T07:10:26.251Z,0
2019-01-12T07:11:06.821Z,0
2019-01-12T07:11:47.368Z,0
2019-01-12T07:12:27.936Z,0
2019-01-12T07:13:08.502Z,0
2019-01-12T07:13:49.060Z,0
2019-01-12T07:14:29.622Z,0
2019-01-12T07:15:10.185Z,0
2019-01-12T07:15:50.744Z,0
2019-01-12T07:16:31.517Z,0
2019-01-12T07:17:12.119Z,0
2019-01-12T07:17:52.689Z,0
2019-01-12T07:18:33.245Z,0
2019-01-12T07:19:13.810Z,0
2019-01-12T07:19:54.384Z,0
2019-01-12T07:20:34.935Z,0
2019-01-12T07:21:15.483Z,0
2019-01-12T07:21:56.028Z,0
2019-01-12T07:22:36.582Z,0
2019-01-12T07:23:17.138Z,0
2019-01-12T07:23:57.702Z,0
2019-01-12T07:24:38.283Z,0
2019-01-12T07:25:18.841Z,0
2019-01-12T07:25:59.435Z,0
2019-01-12T07:26:39.998Z,0
2019-01-12T07:27:20.580Z,0
2019-01-12T07:28:01.144Z,0
2019-01-12T07:28:41.735Z,0
2019-01-12T07:29:22.334Z,0
2019-01-12T07:30:02.891Z,0
2019-01-12T07:30:43.455Z,0
2019-01-12T07:31:24.011Z,0
2019-01-12T07:32:04.562Z,0
2019-01-12T07:32:45.113Z,0
2019-01-12T07:33:25.730Z,0
2019-01-12T07:34:06.319Z,0
2019-01-12T07:34:46.964Z,0
2019-01-12T07:35:27.495Z,0
2019-01-12T07:36:08.051Z,0
2019-01-12T07:36:48.839Z,0
2019-01-12T07:37:29.411Z,0
2019-01-12T07:38:10.012Z,0
2019-01-12T07:38:50.568Z,0
2019-01-12T07:39:31.131Z,5
2019-01-12T07:40:11.692Z,5
2019-01-12T07:40:52.267Z,5
2019-01-12T07:41:32.830Z,5
2019-01-12T07:42:13.386Z,5
2019-01-12T07:42:53.967Z,5
2019-01-12T07:43:34.528Z,0
2019-01-12T07:44:15.085Z,0
2019-01-12T07:44:55.643Z,0
2019-01-12T07:45:36.207Z,5
2019-01-12T07:46:16.754Z,5
2019-01-12T07:46:57.362Z,5
2019-01-12T07:47:37.929Z,5
2019-01-12T07:48:18.488Z,0
2019-01-12T07:48:59.057Z,0
2019-01-12T07:49:39.650Z,5
2019-01-12T07:50:20.198Z,5
2019-01-12T07:51:00.783Z,5
2019-01-12T07:51:41.346Z,5
2019-01-12T07:52:21.922Z,5
2019-01-12T07:53:02.512Z,0
2019-01-12T07:53:43.074Z,0
2019-01-12T07:54:23.653Z,0
2019-01-12T07:55:04.206Z,0
2019-01-12T07:55:44.763Z,0
2019-01-12T07:56:25.336Z,0
2019-01-12T07:57:05.927Z,0
2019-01-12T07:57:46.435Z,0
2019-01-12T07:58:27.001Z,5
2019-01-12T07:59:07.578Z,5
2019-01-12T07:59:48.152Z,5
2019-01-12T08:00:28.706Z,5
2019-01-12T08:01:09.262Z,5
2019-01-12T08:01:49.831Z,5
2019-01-12T08:02:30.416Z,5
2019-01-12T08:03:11.017Z,5
2019-01-12T08:03:51.569Z,5
2019-01-12T08:04:32.149Z,5
2019-01-12T08:05:12.697Z,5
2019-01-12T08:05:53.256Z,5
2019-01-12T08:06:33.816Z,5
2019-01-12T08:07:14.379Z,5
2019-01-12T08:07:54.947Z,5
2019-01-12T08:08:35.525Z,10
2019-01-12T08:09:16.095Z,10
2019-01-12T08:09:56.718Z,10
2019-01-12T08:10:37.284Z,10
2019-01-12T08:11:17.851Z,10
2019-01-12T08:11:58.413Z,10
2019-01-12T08:12:39.001Z,10
2019-01-12T08:13:19.576Z,15
2019-01-12T08:14:00.143Z,15
2019-01-12T08:14:40.751Z,15
2019-01-12T08:15:21.311Z,15
2019-01-12T08:16:01.884Z,15
2019-01-12T08:16:42.468Z,15
2019-01-12T08:17:23.019Z,15
2019-01-12T08:18:03.608Z,15
2019-01-12T08:18:44.168Z,15
2019-01-12T08:19:24.730Z,10
2019-01-12T08:20:05.317Z,15
2019-01-12T08:20:45.896Z,15
2019-01-12T08:21:26.458Z,10
2019-01-12T08:22:07.054Z,10
2019-01-12T08:22:47.672Z,10
2019-01-12T08:23:28.221Z,10
2019-01-12T08:24:08.815Z,10
2019-01-12T08:24:49.418Z,10
2019-01-12T08:25:29.992Z,10
2019-01-12T08:26:10.718Z,10
2019-01-12T08:26:51.294Z,10
2019-01-12T08:27:31.872Z,10
2019-01-12T08:28:12.603Z,10
2019-01-12T08:28:53.278Z,10
2019-01-12T08:29:34.100Z,10
2019-01-12T08:30:14.671Z,10
2019-01-12T08:30:55.468Z,10
2019-01-12T08:31:36.313Z,10
2019-01-12T08:32:16.870Z,10
2019-01-12T08:32:57.657Z,10
2019-01-12T08:33:38.328Z,10
2019-01-12T08:34:18.928Z,10
2019-01-12T08:34:59.879Z,10
2019-01-12T08:35:40.812Z,10
2019-01-12T08:36:21.534Z,10
2019-01-12T08:37:03.004Z,10
2019-01-12T08:37:43.923Z,5
2019-01-12T08:38:24.656Z,5
2019-01-12T08:39:05.244Z,5
2019-01-12T08:39:45.804Z,5
2019-01-12T08:40:26.485Z,5
2019-01-12T08:41:07.047Z,5
2019-01-12T08:41:47.746Z,5
2019-01-12T08:42:28.782Z,10
2019-01-12T08:43:09.717Z,10
2019-01-12T08:43:50.371Z,10
2019-01-12T08:44:31.055Z,10
2019-01-12T08:45:12.070Z,10
2019-01-12T08:45:52.802Z,10
2019-01-12T08:46:33.725Z,15
2019-01-12T08:47:14.407Z,15
2019-01-12T08:47:54.969Z,15
2019-01-12T08:48:35.534Z,15
2019-01-12T08:49:16.094Z,15
2019-01-12T08:49:56.660Z,15
2019-01-12T08:50:37.249Z,15
2019-01-12T08:51:17.921Z,15
2019-01-12T08:51:58.497Z,15
2019-01-12T08:52:39.075Z,15
2019-01-12T08:53:21.040Z,15
2019-01-12T08:54:02.165Z,15
2019-01-12T08:54:42.892Z,15
2019-01-12T08:55:24.687Z,15
2019-01-12T08:56:04.699Z,20
2019-01-12T08:56:45.456Z,20
2019-01-12T08:57:26.259Z,15
2019-01-12T08:58:06.935Z,15
2019-01-12T08:58:47.860Z,15
2019-01-12T08:59:28.520Z,15
2019-01-12T09:00:09.294Z,15
2019-01-12T09:00:50.013Z,15
2019-01-12T09:01:30.815Z,15
2019-01-12T09:02:11.652Z,15
2019-01-12T09:02:52.493Z,15
2019-01-12T09:03:33.159Z,15
2019-01-12T09:04:13.726Z,15
2019-01-12T09:04:54.406Z,15
2019-01-12T09:05:35.549Z,15
2019-01-12T09:06:16.469Z,15
2019-01-12T09:06:57.281Z,15
2019-01-12T09:07:38.023Z,10
2019-01-12T09:08:19.002Z,10
2019-01-12T09:08:59.920Z,10
2019-01-12T09:09:40.469Z,10
2019-01-12T09:10:21.030Z,10
2019-01-12T09:11:01.674Z,10
2019-01-12T09:11:42.537Z,10
2019-01-12T09:12:23.244Z,10
2019-01-12T09:13:04.345Z,10
2019-01-12T09:13:45.175Z,10
2019-01-12T09:14:26.209Z,15
2019-01-12T09:15:06.827Z,10
2019-01-12T09:15:47.676Z,10
2019-01-12T09:16:28.663Z,10
2019-01-12T09:17:09.582Z,10
2019-01-12T09:17:50.206Z,10
2019-01-12T09:18:30.927Z,10
2019-01-12T09:19:11.574Z,10
2019-01-12T09:19:52.222Z,10
2019-01-12T09:20:32.851Z,10
2019-01-12T09:21:14.182Z,10
2019-01-12T09:21:54.746Z,15
2019-01-12T09:22:35.331Z,15
2019-01-12T09:23:15.917Z,15
2019-01-12T09:23:56.819Z,15
2019-01-12T09:24:37.388Z,15
2019-01-12T09:25:17.943Z,20
2019-01-12T09:25:58.594Z,20
2019-01-12T09:26:44.809Z,20
2019-01-12T09:27:19.743Z,20
2019-01-12T09:28:00.329Z,20
2019-01-12T09:28:40.926Z,20
2019-01-12T09:29:21.525Z,20
2019-01-12T09:30:02.156Z,20
2019-01-12T09:30:48.388Z,15
2019-01-12T09:31:23.579Z,15
2019-01-12T09:32:04.134Z,20
2019-01-12T09:32:44.687Z,20
2019-01-12T09:33:25.273Z,20
2019-01-12T09:34:05.842Z,20
2019-01-12T09:34:46.415Z,25
2019-01-12T09:35:26.987Z,20
2019-01-12T09:36:07.542Z,20
2019-01-12T09:36:48.332Z,20
2019-01-12T09:37:28.901Z,20
2019-01-12T09:38:09.451Z,15
2019-01-12T09:38:50.012Z,15
2019-01-12T09:39:30.571Z,15
2019-01-12T09:40:11.474Z,15
2019-01-12T09:40:52.807Z,15
2019-01-12T09:41:33.562Z,15
2019-01-12T09:42:14.736Z,15
2019-01-12T09:42:55.409Z,15
2019-01-12T09:43:35.973Z,15
2019-01-12T09:44:16.536Z,15
2019-01-12T09:44:57.093Z,20
2019-01-12T09:45:37.645Z,25
2019-01-12T09:46:18.208Z,20
2019-01-12T09:46:58.785Z,20
2019-01-12T09:47:39.338Z,20
2019-01-12T09:48:19.920Z,20
2019-01-12T09:49:00.482Z,20
2019-01-12T09:49:41.046Z,20
2019-01-12T09:50:21.696Z,20
2019-01-12T09:51:02.251Z,15
2019-01-12T09:51:42.806Z,15
2019-01-12T09:52:23.368Z,20
2019-01-12T09:53:03.944Z,15
2019-01-12T09:53:44.518Z,15
2019-01-12T09:54:25.076Z,20
2019-01-12T09:55:05.646Z,15
2019-01-12T09:55:46.266Z,20
2019-01-12T09:56:26.904Z,25
2019-01-12T09:57:07.531Z,25
2019-01-12T09:57:48.086Z,25
2019-01-12T09:58:28.644Z,30
2019-01-12T09:59:09.212Z,35